sensor_id;sensor_type;location;lat;lon;timestamp;P1;durP1;ratioP1;P2;durP2;ratioP2
64938;SDS011;51453;47.738;7.420;2023-03-01T00:01:36;41.53;;;22.08;;
64938;SDS011;51453;47.738;7.420;2023-03-01T00:04:01;42.72;;;22.02;;
64938;SDS011;51453;47.738;7.420;2023-03-01T00:06:27;37.22;;;20.30;;
64938;SDS011;51453;47.738;7.420;2023-03-01T00:08:53;37.90;;;21.02;;
64938;SDS011;51453;47.738;7.420;2023-03-01T00:11:25;37.17;;;20.98;;
64938;SDS011;51453;47.738;7.420;2023-03-01T00:13:57;37.47;;;20.33;;
64938;SDS011;51453;47.738;7.420;2023-03-01T00:16:30;36.72;;;20.15;;
64938;SDS011;51453;47.738;7.420;2023-03-01T00:19:00;34.67;;;18.98;;
64938;SDS011;51453;47.738;7.420;2023-03-01T00:21:27;34.72;;;19.67;;
64938;SDS011;51453;47.738;7.420;2023-03-01T00:23:54;33.00;;;19.88;;
64938;SDS011;51453;47.738;7.420;2023-03-01T00:26:23;34.42;;;19.95;;
64938;SDS011;51453;47.738;7.420;2023-03-01T00:28:53;35.72;;;20.48;;
64938;SDS011;51453;47.738;7.420;2023-03-01T00:31:23;35.30;;;19.67;;
64938;SDS011;51453;47.738;7.420;2023-03-01T00:33:54;36.03;;;20.05;;
64938;SDS011;51453;47.738;7.420;2023-03-01T00:36:27;39.17;;;20.10;;
64938;SDS011;51453;47.738;7.420;2023-03-01T00:38:57;34.75;;;19.55;;
64938;SDS011;51453;47.738;7.420;2023-03-01T00:41:23;35.92;;;19.92;;
64938;SDS011;51453;47.738;7.420;2023-03-01T00:43:49;33.65;;;19.85;;
64938;SDS011;51453;47.738;7.420;2023-03-01T00:46:16;36.00;;;19.67;;
64938;SDS011;51453;47.738;7.420;2023-03-01T00:48:43;38.08;;;20.48;;
64938;SDS011;51453;47.738;7.420;2023-03-01T00:51:19;36.53;;;19.60;;
64938;SDS011;51453;47.738;7.420;2023-03-01T00:53:49;34.60;;;19.20;;
64938;SDS011;51453;47.738;7.420;2023-03-01T00:56:16;34.40;;;19.25;;
64938;SDS011;51453;47.738;7.420;2023-03-01T00:58:42;38.80;;;20.58;;
64938;SDS011;51453;47.738;7.420;2023-03-01T01:01:18;36.60;;;19.67;;
64938;SDS011;51453;47.738;7.420;2023-03-01T01:03:46;34.70;;;19.13;;
64938;SDS011;51453;47.738;7.420;2023-03-01T01:06:17;35.30;;;20.40;;
64938;SDS011;51453;47.738;7.420;2023-03-01T01:08:50;35.85;;;19.98;;
64938;SDS011;51453;47.738;7.420;2023-03-01T01:11:17;32.63;;;19.05;;
64938;SDS011;51453;47.738;7.420;2023-03-01T01:13:44;35.72;;;19.50;;
64938;SDS011;51453;47.738;7.420;2023-03-01T01:16:11;36.78;;;19.20;;
64938;SDS011;51453;47.738;7.420;2023-03-01T01:18:38;33.92;;;19.23;;
64938;SDS011;51453;47.738;7.420;2023-03-01T01:21:05;33.08;;;18.67;;
64938;SDS011;51453;47.738;7.420;2023-03-01T01:23:31;35.10;;;19.00;;
64938;SDS011;51453;47.738;7.420;2023-03-01T01:25:57;34.15;;;19.42;;
64938;SDS011;51453;47.738;7.420;2023-03-01T01:28:29;35.65;;;19.52;;
64938;SDS011;51453;47.738;7.420;2023-03-01T01:30:54;36.38;;;19.80;;
64938;SDS011;51453;47.738;7.420;2023-03-01T01:33:20;32.35;;;19.30;;
64938;SDS011;51453;47.738;7.420;2023-03-01T01:35:45;37.83;;;19.48;;
64938;SDS011;51453;47.738;7.420;2023-03-01T01:38:11;33.08;;;19.00;;
64938;SDS011;51453;47.738;7.420;2023-03-01T01:40:42;36.45;;;19.63;;
64938;SDS011;51453;47.738;7.420;2023-03-01T01:43:16;36.63;;;19.13;;
64938;SDS011;51453;47.738;7.420;2023-03-01T01:45:51;35.08;;;19.13;;
64938;SDS011;51453;47.738;7.420;2023-03-01T01:48:22;36.25;;;19.55;;
64938;SDS011;51453;47.738;7.420;2023-03-01T01:51:05;33.67;;;19.00;;
64938;SDS011;51453;47.738;7.420;2023-03-01T01:53:36;33.33;;;18.55;;
64938;SDS011;51453;47.738;7.420;2023-03-01T01:56:03;31.02;;;18.42;;
64938;SDS011;51453;47.738;7.420;2023-03-01T01:58:32;35.85;;;18.85;;
64938;SDS011;51453;47.738;7.420;2023-03-01T02:00:58;34.42;;;18.48;;
64938;SDS011;51453;47.738;7.420;2023-03-01T02:03:27;34.35;;;19.27;;
64938;SDS011;51453;47.738;7.420;2023-03-01T02:08:45;34.05;;;18.77;;
64938;SDS011;51453;47.738;7.420;2023-03-01T02:11:13;33.92;;;18.95;;
64938;SDS011;51453;47.738;7.420;2023-03-01T02:13:39;31.48;;;17.67;;
64938;SDS011;51453;47.738;7.420;2023-03-01T02:16:10;36.72;;;19.35;;
64938;SDS011;51453;47.738;7.420;2023-03-01T02:18:38;34.78;;;18.60;;
64938;SDS011;51453;47.738;7.420;2023-03-01T02:21:11;32.72;;;18.80;;
64938;SDS011;51453;47.738;7.420;2023-03-01T02:23:59;32.20;;;18.08;;
64938;SDS011;51453;47.738;7.420;2023-03-01T02:26:48;35.55;;;18.23;;
64938;SDS011;51453;47.738;7.420;2023-03-01T02:29:19;34.80;;;18.65;;
64938;SDS011;51453;47.738;7.420;2023-03-01T02:31:46;33.67;;;18.83;;
64938;SDS011;51453;47.738;7.420;2023-03-01T02:34:17;36.08;;;19.35;;
64938;SDS011;51453;47.738;7.420;2023-03-01T02:36:47;34.80;;;18.60;;
64938;SDS011;51453;47.738;7.420;2023-03-01T02:39:24;36.15;;;18.67;;
64938;SDS011;51453;47.738;7.420;2023-03-01T02:41:57;35.60;;;19.40;;
64938;SDS011;51453;47.738;7.420;2023-03-01T02:44:24;34.38;;;18.40;;
64938;SDS011;51453;47.738;7.420;2023-03-01T02:46:53;35.35;;;18.77;;
64938;SDS011;51453;47.738;7.420;2023-03-01T02:49:22;37.85;;;19.00;;
64938;SDS011;51453;47.738;7.420;2023-03-01T02:57:34;34.75;;;19.20;;
64938;SDS011;51453;47.738;7.420;2023-03-01T03:00:04;33.85;;;18.67;;
64938;SDS011;51453;47.738;7.420;2023-03-01T03:02:44;34.72;;;19.65;;
64938;SDS011;51453;47.738;7.420;2023-03-01T03:05:29;34.00;;;18.65;;
64938;SDS011;51453;47.738;7.420;2023-03-01T03:07:56;35.85;;;19.30;;
64938;SDS011;51453;47.738;7.420;2023-03-01T03:10:24;35.72;;;18.73;;
64938;SDS011;51453;47.738;7.420;2023-03-01T03:12:55;35.85;;;18.20;;
64938;SDS011;51453;47.738;7.420;2023-03-01T03:15:23;34.10;;;18.45;;
64938;SDS011;51453;47.738;7.420;2023-03-01T03:17:51;32.13;;;18.15;;
64938;SDS011;51453;47.738;7.420;2023-03-01T03:20:18;32.40;;;17.30;;
64938;SDS011;51453;47.738;7.420;2023-03-01T03:22:47;33.95;;;17.98;;
64938;SDS011;51453;47.738;7.420;2023-03-01T03:25:15;33.13;;;17.90;;
64938;SDS011;51453;47.738;7.420;2023-03-01T03:27:42;31.88;;;18.35;;
64938;SDS011;51453;47.738;7.420;2023-03-01T03:30:10;35.92;;;17.58;;
64938;SDS011;51453;47.738;7.420;2023-03-01T03:32:41;33.40;;;17.55;;
64938;SDS011;51453;47.738;7.420;2023-03-01T03:35:17;31.17;;;16.52;;
64938;SDS011;51453;47.738;7.420;2023-03-01T03:37:51;33.03;;;17.35;;
64938;SDS011;51453;47.738;7.420;2023-03-01T03:40:27;33.13;;;16.75;;
64938;SDS011;51453;47.738;7.420;2023-03-01T03:42:55;32.72;;;17.17;;
64938;SDS011;51453;47.738;7.420;2023-03-01T03:45:21;31.58;;;17.27;;
64938;SDS011;51453;47.738;7.420;2023-03-01T03:47:47;35.45;;;17.95;;
64938;SDS011;51453;47.738;7.420;2023-03-01T03:50:13;32.13;;;16.95;;
64938;SDS011;51453;47.738;7.420;2023-03-01T03:52:40;38.45;;;17.92;;
64938;SDS011;51453;47.738;7.420;2023-03-01T03:55:07;36.70;;;17.63;;
64938;SDS011;51453;47.738;7.420;2023-03-01T03:57:40;32.15;;;17.65;;
64938;SDS011;51453;47.738;7.420;2023-03-01T04:00:09;33.35;;;17.13;;
64938;SDS011;51453;47.738;7.420;2023-03-01T04:02:39;31.83;;;16.85;;
64938;SDS011;51453;47.738;7.420;2023-03-01T04:05:06;32.75;;;17.58;;
64938;SDS011;51453;47.738;7.420;2023-03-01T04:07:36;25.80;;;13.07;;
64938;SDS011;51453;47.738;7.420;2023-03-01T04:10:06;27.38;;;16.38;;
64938;SDS011;51453;47.738;7.420;2023-03-01T04:12:40;35.25;;;17.77;;
64938;SDS011;51453;47.738;7.420;2023-03-01T04:15:11;31.83;;;17.20;;
64938;SDS011;51453;47.738;7.420;2023-03-01T04:17:40;32.88;;;17.52;;
64938;SDS011;51453;47.738;7.420;2023-03-01T04:20:08;31.00;;;16.30;;
64938;SDS011;51453;47.738;7.420;2023-03-01T04:22:50;29.00;;;15.98;;
64938;SDS011;51453;47.738;7.420;2023-03-01T04:28:18;28.42;;;15.48;;
64938;SDS011;51453;47.738;7.420;2023-03-01T04:30:44;33.50;;;17.10;;
64938;SDS011;51453;47.738;7.420;2023-03-01T04:33:10;34.42;;;18.33;;
64938;SDS011;51453;47.738;7.420;2023-03-01T04:35:36;35.38;;;17.85;;
64938;SDS011;51453;47.738;7.420;2023-03-01T04:38:04;31.77;;;17.27;;
64938;SDS011;51453;47.738;7.420;2023-03-01T04:40:30;29.05;;;16.25;;
64938;SDS011;51453;47.738;7.420;2023-03-01T04:42:56;31.67;;;16.73;;
64938;SDS011;51453;47.738;7.420;2023-03-01T04:45:22;31.77;;;16.63;;
64938;SDS011;51453;47.738;7.420;2023-03-01T04:47:48;29.50;;;16.55;;
64938;SDS011;51453;47.738;7.420;2023-03-01T04:50:15;32.15;;;17.40;;
64938;SDS011;51453;47.738;7.420;2023-03-01T04:52:42;33.13;;;17.48;;
64938;SDS011;51453;47.738;7.420;2023-03-01T04:55:08;34.40;;;17.45;;
64938;SDS011;51453;47.738;7.420;2023-03-01T04:57:35;32.72;;;17.75;;
64938;SDS011;51453;47.738;7.420;2023-03-01T05:00:01;30.98;;;16.65;;
64938;SDS011;51453;47.738;7.420;2023-03-01T05:02:44;31.85;;;17.08;;
64938;SDS011;51453;47.738;7.420;2023-03-01T05:05:26;23.90;;;13.17;;
64938;SDS011;51453;47.738;7.420;2023-03-01T05:07:52;31.25;;;17.02;;
64938;SDS011;51453;47.738;7.420;2023-03-01T05:10:19;33.38;;;17.10;;
64938;SDS011;51453;47.738;7.420;2023-03-01T05:12:45;34.55;;;17.77;;
64938;SDS011;51453;47.738;7.420;2023-03-01T05:15:14;33.13;;;17.40;;
64938;SDS011;51453;47.738;7.420;2023-03-01T05:17:40;35.95;;;17.30;;
64938;SDS011;51453;47.738;7.420;2023-03-01T05:20:06;34.55;;;17.98;;
64938;SDS011;51453;47.738;7.420;2023-03-01T05:22:35;33.00;;;17.58;;
64938;SDS011;51453;47.738;7.420;2023-03-01T05:25:01;32.85;;;17.15;;
64938;SDS011;51453;47.738;7.420;2023-03-01T05:27:27;34.53;;;17.90;;
64938;SDS011;51453;47.738;7.420;2023-03-01T05:29:54;37.15;;;17.63;;
64938;SDS011;51453;47.738;7.420;2023-03-01T05:32:20;32.85;;;17.35;;
64938;SDS011;51453;47.738;7.420;2023-03-01T05:34:46;36.30;;;18.40;;
64938;SDS011;51453;47.738;7.420;2023-03-01T05:37:12;32.95;;;18.30;;
64938;SDS011;51453;47.738;7.420;2023-03-01T05:39:41;29.75;;;16.80;;
64938;SDS011;51453;47.738;7.420;2023-03-01T05:42:09;34.72;;;17.88;;
64938;SDS011;51453;47.738;7.420;2023-03-01T05:44:36;32.67;;;17.90;;
64938;SDS011;51453;47.738;7.420;2023-03-01T05:47:02;38.58;;;19.05;;
64938;SDS011;51453;47.738;7.420;2023-03-01T05:49:27;36.30;;;18.45;;
64938;SDS011;51453;47.738;7.420;2023-03-01T05:51:53;34.08;;;18.15;;
64938;SDS011;51453;47.738;7.420;2023-03-01T05:54:20;33.28;;;17.77;;
64938;SDS011;51453;47.738;7.420;2023-03-01T05:56:46;33.70;;;18.10;;
64938;SDS011;51453;47.738;7.420;2023-03-01T05:59:12;31.52;;;17.45;;
64938;SDS011;51453;47.738;7.420;2023-03-01T06:01:39;34.58;;;18.77;;
64938;SDS011;51453;47.738;7.420;2023-03-01T06:04:04;36.05;;;18.90;;
64938;SDS011;51453;47.738;7.420;2023-03-01T06:06:33;34.58;;;17.70;;
64938;SDS011;51453;47.738;7.420;2023-03-01T06:09:02;39.33;;;18.85;;
64938;SDS011;51453;47.738;7.420;2023-03-01T06:11:28;34.92;;;19.40;;
64938;SDS011;51453;47.738;7.420;2023-03-01T06:13:54;39.60;;;18.00;;
64938;SDS011;51453;47.738;7.420;2023-03-01T06:16:20;34.10;;;18.55;;
64938;SDS011;51453;47.738;7.420;2023-03-01T06:18:45;33.83;;;18.23;;
64938;SDS011;51453;47.738;7.420;2023-03-01T06:21:11;33.80;;;18.70;;
64938;SDS011;51453;47.738;7.420;2023-03-01T06:23:36;34.05;;;19.00;;
64938;SDS011;51453;47.738;7.420;2023-03-01T06:26:08;36.90;;;19.23;;
64938;SDS011;51453;47.738;7.420;2023-03-01T06:28:35;32.83;;;17.70;;
64938;SDS011;51453;47.738;7.420;2023-03-01T06:31:01;35.60;;;18.98;;
64938;SDS011;51453;47.738;7.420;2023-03-01T06:33:26;37.20;;;19.13;;
64938;SDS011;51453;47.738;7.420;2023-03-01T06:35:55;43.65;;;20.75;;
64938;SDS011;51453;47.738;7.420;2023-03-01T06:38:21;35.97;;;19.05;;
64938;SDS011;51453;47.738;7.420;2023-03-01T06:40:52;38.03;;;20.27;;
64938;SDS011;51453;47.738;7.420;2023-03-01T06:43:21;35.50;;;18.65;;
64938;SDS011;51453;47.738;7.420;2023-03-01T06:45:48;35.72;;;19.42;;
64938;SDS011;51453;47.738;7.420;2023-03-01T06:48:14;40.35;;;19.73;;
64938;SDS011;51453;47.738;7.420;2023-03-01T06:50:43;35.83;;;18.88;;
64938;SDS011;51453;47.738;7.420;2023-03-01T06:53:08;31.67;;;18.23;;
64938;SDS011;51453;47.738;7.420;2023-03-01T06:55:34;36.90;;;19.63;;
64938;SDS011;51453;47.738;7.420;2023-03-01T06:58:00;35.90;;;18.55;;
64938;SDS011;51453;47.738;7.420;2023-03-01T07:00:27;38.25;;;18.83;;
64938;SDS011;51453;47.738;7.420;2023-03-01T07:02:53;37.53;;;19.55;;
64938;SDS011;51453;47.738;7.420;2023-03-01T07:05:19;39.83;;;18.95;;
64938;SDS011;51453;47.738;7.420;2023-03-01T07:07:46;33.83;;;19.42;;
64938;SDS011;51453;47.738;7.420;2023-03-01T07:10:11;35.35;;;18.13;;
64938;SDS011;51453;47.738;7.420;2023-03-01T07:12:37;34.05;;;19.17;;
64938;SDS011;51453;47.738;7.420;2023-03-01T07:15:03;37.70;;;19.02;;
64938;SDS011;51453;47.738;7.420;2023-03-01T07:17:29;37.45;;;20.10;;
64938;SDS011;51453;47.738;7.420;2023-03-01T07:19:56;37.78;;;19.70;;
64938;SDS011;51453;47.738;7.420;2023-03-01T07:22:21;36.60;;;18.92;;
64938;SDS011;51453;47.738;7.420;2023-03-01T07:24:47;33.47;;;19.42;;
64938;SDS011;51453;47.738;7.420;2023-03-01T07:27:13;32.35;;;18.75;;
64938;SDS011;51453;47.738;7.420;2023-03-01T07:29:38;32.33;;;19.05;;
64938;SDS011;51453;47.738;7.420;2023-03-01T07:32:04;35.33;;;19.45;;
64938;SDS011;51453;47.738;7.420;2023-03-01T07:34:31;32.55;;;18.52;;
64938;SDS011;51453;47.738;7.420;2023-03-01T07:36:56;29.33;;;18.05;;
64938;SDS011;51453;47.738;7.420;2023-03-01T07:39:22;32.85;;;18.48;;
64938;SDS011;51453;47.738;7.420;2023-03-01T07:41:50;36.42;;;19.40;;
64938;SDS011;51453;47.738;7.420;2023-03-01T07:44:16;34.35;;;18.83;;
64938;SDS011;51453;47.738;7.420;2023-03-01T07:46:42;38.95;;;19.88;;
64938;SDS011;51453;47.738;7.420;2023-03-01T07:49:09;33.45;;;19.02;;
64938;SDS011;51453;47.738;7.420;2023-03-01T07:51:35;30.17;;;18.35;;
64938;SDS011;51453;47.738;7.420;2023-03-01T07:54:00;29.33;;;18.20;;
64938;SDS011;51453;47.738;7.420;2023-03-01T07:56:26;33.55;;;18.48;;
64938;SDS011;51453;47.738;7.420;2023-03-01T07:58:52;33.15;;;18.83;;
64938;SDS011;51453;47.738;7.420;2023-03-01T08:01:18;31.90;;;18.50;;
64938;SDS011;51453;47.738;7.420;2023-03-01T08:03:47;31.98;;;18.80;;
64938;SDS011;51453;47.738;7.420;2023-03-01T08:06:14;29.38;;;17.98;;
64938;SDS011;51453;47.738;7.420;2023-03-01T08:08:41;36.20;;;18.15;;
64938;SDS011;51453;47.738;7.420;2023-03-01T08:11:08;36.70;;;19.02;;
64938;SDS011;51453;47.738;7.420;2023-03-01T08:13:36;30.05;;;18.20;;
64938;SDS011;51453;47.738;7.420;2023-03-01T08:16:06;30.13;;;18.75;;
64938;SDS011;51453;47.738;7.420;2023-03-01T08:18:33;29.52;;;17.55;;
64938;SDS011;51453;47.738;7.420;2023-03-01T08:21:06;29.83;;;17.65;;
64938;SDS011;51453;47.738;7.420;2023-03-01T08:23:34;31.63;;;17.73;;
64938;SDS011;51453;47.738;7.420;2023-03-01T08:26:04;29.65;;;18.10;;
64938;SDS011;51453;47.738;7.420;2023-03-01T08:28:34;29.05;;;17.83;;
64938;SDS011;51453;47.738;7.420;2023-03-01T08:31:00;30.27;;;18.05;;
64938;SDS011;51453;47.738;7.420;2023-03-01T08:33:26;32.15;;;18.80;;
64938;SDS011;51453;47.738;7.420;2023-03-01T08:35:52;36.53;;;18.63;;
64938;SDS011;51453;47.738;7.420;2023-03-01T08:38:18;33.95;;;18.70;;
64938;SDS011;51453;47.738;7.420;2023-03-01T08:40:43;29.38;;;18.38;;
64938;SDS011;51453;47.738;7.420;2023-03-01T08:43:09;29.05;;;17.35;;
64938;SDS011;51453;47.738;7.420;2023-03-01T08:45:36;33.70;;;18.15;;
64938;SDS011;51453;47.738;7.420;2023-03-01T08:48:02;28.02;;;17.73;;
64938;SDS011;51453;47.738;7.420;2023-03-01T08:50:27;31.80;;;17.55;;
64938;SDS011;51453;47.738;7.420;2023-03-01T08:52:53;33.20;;;17.85;;
64938;SDS011;51453;47.738;7.420;2023-03-01T08:55:18;32.50;;;18.58;;
64938;SDS011;51453;47.738;7.420;2023-03-01T08:57:44;29.25;;;17.77;;
64938;SDS011;51453;47.738;7.420;2023-03-01T09:00:10;32.20;;;17.98;;
64938;SDS011;51453;47.738;7.420;2023-03-01T09:02:36;30.40;;;18.17;;
64938;SDS011;51453;47.738;7.420;2023-03-01T09:05:02;29.15;;;17.70;;
64938;SDS011;51453;47.738;7.420;2023-03-01T09:07:28;26.98;;;17.30;;
64938;SDS011;51453;47.738;7.420;2023-03-01T09:09:54;31.33;;;18.05;;
64938;SDS011;51453;47.738;7.420;2023-03-01T09:12:20;28.38;;;17.77;;
64938;SDS011;51453;47.738;7.420;2023-03-01T09:14:46;29.45;;;18.13;;
64938;SDS011;51453;47.738;7.420;2023-03-01T09:17:11;27.98;;;17.80;;
64938;SDS011;51453;47.738;7.420;2023-03-01T09:19:37;29.35;;;17.40;;
64938;SDS011;51453;47.738;7.420;2023-03-01T09:22:03;30.35;;;17.60;;
64938;SDS011;51453;47.738;7.420;2023-03-01T09:24:29;27.50;;;17.45;;
64938;SDS011;51453;47.738;7.420;2023-03-01T09:26:55;27.65;;;17.23;;
64938;SDS011;51453;47.738;7.420;2023-03-01T09:29:21;26.17;;;17.40;;
64938;SDS011;51453;47.738;7.420;2023-03-01T09:31:47;28.13;;;17.15;;
64938;SDS011;51453;47.738;7.420;2023-03-01T09:34:13;29.85;;;16.88;;
64938;SDS011;51453;47.738;7.420;2023-03-01T09:36:44;24.60;;;16.08;;
64938;SDS011;51453;47.738;7.420;2023-03-01T09:39:10;28.42;;;17.48;;
64938;SDS011;51453;47.738;7.420;2023-03-01T09:44:13;30.08;;;17.88;;
64938;SDS011;51453;47.738;7.420;2023-03-01T09:46:59;28.95;;;17.70;;
64938;SDS011;51453;47.738;7.420;2023-03-01T09:51:59;27.90;;;17.35;;
64938;SDS011;51453;47.738;7.420;2023-03-01T09:54:34;28.80;;;16.90;;
64938;SDS011;51453;47.738;7.420;2023-03-01T09:59:43;26.33;;;17.70;;
64938;SDS011;51453;47.738;7.420;2023-03-01T10:02:27;30.65;;;17.90;;
64938;SDS011;51453;47.738;7.420;2023-03-01T10:05:12;29.60;;;18.90;;
64938;SDS011;51453;47.738;7.420;2023-03-01T10:13:00;28.30;;;16.73;;
64938;SDS011;51453;47.738;7.420;2023-03-01T10:15:35;27.65;;;18.00;;
64938;SDS011;51453;47.738;7.420;2023-03-01T10:18:10;24.38;;;16.73;;
64938;SDS011;51453;47.738;7.420;2023-03-01T10:20:44;27.20;;;17.38;;
64938;SDS011;51453;47.738;7.420;2023-03-01T10:23:17;25.85;;;17.50;;
64938;SDS011;51453;47.738;7.420;2023-03-01T10:28:37;27.92;;;17.75;;
64938;SDS011;51453;47.738;7.420;2023-03-01T10:31:14;27.95;;;17.17;;
64938;SDS011;51453;47.738;7.420;2023-03-01T10:33:43;22.75;;;15.82;;
64938;SDS011;51453;47.738;7.420;2023-03-01T10:36:09;27.20;;;17.23;;
64938;SDS011;51453;47.738;7.420;2023-03-01T10:38:54;24.63;;;16.90;;
64938;SDS011;51453;47.738;7.420;2023-03-01T10:41:22;27.58;;;17.20;;
64938;SDS011;51453;47.738;7.420;2023-03-01T10:46:33;25.00;;;17.27;;
64938;SDS011;51453;47.738;7.420;2023-03-01T10:51:43;25.75;;;17.05;;
64938;SDS011;51453;47.738;7.420;2023-03-01T10:56:46;26.00;;;16.90;;
64938;SDS011;51453;47.738;7.420;2023-03-01T10:59:26;26.27;;;17.35;;
64938;SDS011;51453;47.738;7.420;2023-03-01T11:04:34;26.23;;;17.15;;
64938;SDS011;51453;47.738;7.420;2023-03-01T11:07:01;25.75;;;17.35;;
64938;SDS011;51453;47.738;7.420;2023-03-01T11:09:30;28.20;;;17.20;;
64938;SDS011;51453;47.738;7.420;2023-03-01T11:12:03;26.75;;;17.05;;
64938;SDS011;51453;47.738;7.420;2023-03-01T11:14:38;25.55;;;17.13;;
64938;SDS011;51453;47.738;7.420;2023-03-01T11:17:12;25.83;;;17.40;;
64938;SDS011;51453;47.738;7.420;2023-03-01T11:20:06;25.85;;;16.73;;
64938;SDS011;51453;47.738;7.420;2023-03-01T11:22:47;25.83;;;17.35;;
64938;SDS011;51453;47.738;7.420;2023-03-01T11:25:19;23.42;;;16.20;;
64938;SDS011;51453;47.738;7.420;2023-03-01T11:27:50;25.35;;;17.48;;
64938;SDS011;51453;47.738;7.420;2023-03-01T11:32:56;24.00;;;17.20;;
64938;SDS011;51453;47.738;7.420;2023-03-01T11:36:01;25.77;;;16.52;;
64938;SDS011;51453;47.738;7.420;2023-03-01T11:38:30;24.10;;;17.17;;
64938;SDS011;51453;47.738;7.420;2023-03-01T11:41:16;24.50;;;16.70;;
64938;SDS011;51453;47.738;7.420;2023-03-01T11:46:37;26.70;;;17.35;;
64938;SDS011;51453;47.738;7.420;2023-03-01T12:03:25;28.60;;;17.00;;
64938;SDS011;51453;47.738;7.420;2023-03-01T12:11:28;26.10;;;17.70;;
64938;SDS011;51453;47.738;7.420;2023-03-01T12:14:01;22.98;;;16.80;;
64938;SDS011;51453;47.738;7.420;2023-03-01T12:24:56;25.02;;;16.40;;
64938;SDS011;51453;47.738;7.420;2023-03-01T12:49:52;28.83;;;17.52;;
64938;SDS011;51453;47.738;7.420;2023-03-01T12:54:54;24.50;;;16.25;;
64938;SDS011;51453;47.738;7.420;2023-03-01T13:06:28;24.60;;;16.65;;
64938;SDS011;51453;47.738;7.420;2023-03-01T13:09:02;30.85;;;17.10;;
64938;SDS011;51453;47.738;7.420;2023-03-01T13:11:32;30.42;;;16.95;;
64938;SDS011;51453;47.738;7.420;2023-03-01T13:14:34;26.02;;;17.42;;
64938;SDS011;51453;47.738;7.420;2023-03-01T13:17:01;25.02;;;17.00;;
64938;SDS011;51453;47.738;7.420;2023-03-01T13:19:29;24.35;;;17.08;;
64938;SDS011;51453;47.738;7.420;2023-03-01T13:21:57;24.73;;;17.08;;
64938;SDS011;51453;47.738;7.420;2023-03-01T13:24:37;27.38;;;18.38;;
64938;SDS011;51453;47.738;7.420;2023-03-01T13:29:48;26.33;;;17.58;;
64938;SDS011;51453;47.738;7.420;2023-03-01T13:34:55;25.60;;;18.05;;
64938;SDS011;51453;47.738;7.420;2023-03-01T13:37:33;29.90;;;18.58;;
64938;SDS011;51453;47.738;7.420;2023-03-01T13:40:02;26.70;;;17.33;;
64938;SDS011;51453;47.738;7.420;2023-03-01T13:42:35;25.60;;;17.60;;
64938;SDS011;51453;47.738;7.420;2023-03-01T13:45:14;26.77;;;18.83;;
64938;SDS011;51453;47.738;7.420;2023-03-01T13:47:46;27.42;;;18.75;;
64938;SDS011;51453;47.738;7.420;2023-03-01T13:50:33;30.20;;;18.40;;
64938;SDS011;51453;47.738;7.420;2023-03-01T13:53:04;26.38;;;18.52;;
64938;SDS011;51453;47.738;7.420;2023-03-01T13:58:15;27.33;;;18.27;;
64938;SDS011;51453;47.738;7.420;2023-03-01T14:01:01;24.80;;;17.95;;
64938;SDS011;51453;47.738;7.420;2023-03-01T14:03:29;25.48;;;18.25;;
64938;SDS011;51453;47.738;7.420;2023-03-01T14:08:26;29.40;;;18.83;;
64938;SDS011;51453;47.738;7.420;2023-03-01T14:10:58;27.15;;;18.42;;
64938;SDS011;51453;47.738;7.420;2023-03-01T14:21:31;26.63;;;18.55;;
64938;SDS011;51453;47.738;7.420;2023-03-01T14:23:57;29.88;;;21.20;;
64938;SDS011;51453;47.738;7.420;2023-03-01T14:26:23;27.65;;;19.08;;
64938;SDS011;51453;47.738;7.420;2023-03-01T14:28:50;24.02;;;17.98;;
64938;SDS011;51453;47.738;7.420;2023-03-01T14:31:36;27.08;;;18.73;;
64938;SDS011;51453;47.738;7.420;2023-03-01T14:34:04;27.15;;;19.45;;
64938;SDS011;51453;47.738;7.420;2023-03-01T14:36:31;32.20;;;19.75;;
64938;SDS011;51453;47.738;7.420;2023-03-01T14:38:58;29.10;;;19.23;;
64938;SDS011;51453;47.738;7.420;2023-03-01T14:41:30;28.02;;;19.33;;
64938;SDS011;51453;47.738;7.420;2023-03-01T14:46:32;28.45;;;18.90;;
64938;SDS011;51453;47.738;7.420;2023-03-01T14:51:35;27.67;;;19.63;;
64938;SDS011;51453;47.738;7.420;2023-03-01T14:56:54;25.85;;;18.42;;
64938;SDS011;51453;47.738;7.420;2023-03-01T14:59:24;29.00;;;20.27;;
64938;SDS011;51453;47.738;7.420;2023-03-01T15:01:51;31.67;;;20.80;;
64938;SDS011;51453;47.738;7.420;2023-03-01T15:04:20;31.38;;;20.30;;
64938;SDS011;51453;47.738;7.420;2023-03-01T15:06:55;27.45;;;19.67;;
64938;SDS011;51453;47.738;7.420;2023-03-01T15:11:57;31.35;;;19.48;;
64938;SDS011;51453;47.738;7.420;2023-03-01T15:14:39;32.03;;;20.00;;
64938;SDS011;51453;47.738;7.420;2023-03-01T15:17:19;29.77;;;19.75;;
64938;SDS011;51453;47.738;7.420;2023-03-01T15:20:13;30.42;;;20.50;;
64938;SDS011;51453;47.738;7.420;2023-03-01T15:22:45;32.70;;;21.15;;
64938;SDS011;51453;47.738;7.420;2023-03-01T15:25:23;35.97;;;20.48;;
64938;SDS011;51453;47.738;7.420;2023-03-01T15:27:54;31.02;;;20.05;;
64938;SDS011;51453;47.738;7.420;2023-03-01T15:30:26;32.03;;;20.30;;
64938;SDS011;51453;47.738;7.420;2023-03-01T15:35:52;32.15;;;19.60;;
64938;SDS011;51453;47.738;7.420;2023-03-01T15:38:30;30.40;;;19.35;;
64938;SDS011;51453;47.738;7.420;2023-03-01T15:41:04;31.75;;;18.48;;
64938;SDS011;51453;47.738;7.420;2023-03-01T15:43:47;28.20;;;18.35;;
64938;SDS011;51453;47.738;7.420;2023-03-01T15:46:22;33.85;;;19.35;;
64938;SDS011;51453;47.738;7.420;2023-03-01T15:48:54;29.05;;;18.40;;
64938;SDS011;51453;47.738;7.420;2023-03-01T15:51:33;30.80;;;19.88;;
64938;SDS011;51453;47.738;7.420;2023-03-01T15:54:07;29.05;;;19.42;;
64938;SDS011;51453;47.738;7.420;2023-03-01T15:56:43;31.35;;;19.08;;
64938;SDS011;51453;47.738;7.420;2023-03-01T15:59:09;31.88;;;19.73;;
64938;SDS011;51453;47.738;7.420;2023-03-01T16:01:43;33.15;;;20.58;;
64938;SDS011;51453;47.738;7.420;2023-03-01T16:04:12;31.58;;;20.23;;
64938;SDS011;51453;47.738;7.420;2023-03-01T16:06:45;31.08;;;18.67;;
64938;SDS011;51453;47.738;7.420;2023-03-01T16:09:21;30.95;;;19.70;;
64938;SDS011;51453;47.738;7.420;2023-03-01T16:11:48;34.60;;;20.63;;
64938;SDS011;51453;47.738;7.420;2023-03-01T16:14:14;30.17;;;19.98;;
64938;SDS011;51453;47.738;7.420;2023-03-01T16:16:41;31.17;;;19.60;;
64938;SDS011;51453;47.738;7.420;2023-03-01T16:19:10;32.78;;;20.75;;
64938;SDS011;51453;47.738;7.420;2023-03-01T16:21:37;31.98;;;20.80;;
64938;SDS011;51453;47.738;7.420;2023-03-01T16:24:03;31.95;;;20.42;;
64938;SDS011;51453;47.738;7.420;2023-03-01T16:26:29;31.45;;;19.55;;
64938;SDS011;51453;47.738;7.420;2023-03-01T16:28:55;32.13;;;20.63;;
64938;SDS011;51453;47.738;7.420;2023-03-01T16:31:22;34.50;;;20.92;;
64938;SDS011;51453;47.738;7.420;2023-03-01T16:33:49;35.38;;;20.85;;
64938;SDS011;51453;47.738;7.420;2023-03-01T16:36:17;34.92;;;20.73;;
64938;SDS011;51453;47.738;7.420;2023-03-01T16:38:44;34.00;;;21.92;;
64938;SDS011;51453;47.738;7.420;2023-03-01T16:41:14;38.05;;;21.17;;
64938;SDS011;51453;47.738;7.420;2023-03-01T16:43:42;34.78;;;22.02;;
64938;SDS011;51453;47.738;7.420;2023-03-01T16:46:11;35.88;;;22.10;;
64938;SDS011;51453;47.738;7.420;2023-03-01T16:48:39;36.85;;;22.27;;
64938;SDS011;51453;47.738;7.420;2023-03-01T16:51:05;39.97;;;23.38;;
64938;SDS011;51453;47.738;7.420;2023-03-01T16:53:35;38.80;;;23.25;;